createdAt,value
2023-01-25T00:01:52.621Z,2.70
2023-01-25T00:06:55.728Z,3.30
2023-01-25T00:11:58.310Z,3.20
2023-01-25T00:17:00.966Z,2.50
2023-01-25T00:22:03.458Z,2.40
2023-01-25T00:27:06.067Z,2.30
2023-01-25T00:32:32.549Z,2.30
2023-01-25T00:37:47.605Z,2.20
2023-01-25T00:42:50.137Z,1.70
2023-01-25T00:47:56.015Z,2.20
2023-01-25T00:52:58.514Z,2.30
2023-01-25T00:58:00.966Z,2.20
2023-01-25T01:03:03.627Z,2.50
2023-01-25T01:08:06.148Z,2.20
2023-01-25T01:13:08.654Z,2.10
2023-01-25T01:18:11.160Z,2.20
2023-01-25T01:23:13.649Z,2.30
2023-01-25T01:28:16.163Z,2.10
2023-01-25T01:33:18.670Z,2.30
2023-01-25T01:38:21.504Z,2.10
2023-01-25T01:43:24.938Z,2.00
2023-01-25T01:48:49.373Z,2.00
2023-01-25T01:54:02.737Z,2.20
2023-01-25T01:59:08.148Z,2.50
2023-01-25T02:04:12.066Z,2.30
2023-01-25T02:09:18.507Z,2.40
2023-01-25T02:14:21.538Z,2.30
2023-01-25T02:19:51.401Z,3.00
2023-01-25T02:25:11.531Z,3.00
2023-01-25T02:30:14.285Z,3.30
2023-01-25T02:35:24.839Z,4.10
2023-01-25T02:40:28.954Z,3.10
2023-01-25T02:45:31.865Z,3.80
2023-01-25T02:50:34.321Z,3.70
2023-01-25T02:55:37.075Z,3.80
2023-01-25T03:00:39.776Z,3.50
2023-01-25T03:05:42.331Z,4.20
2023-01-25T03:10:45.037Z,4.20
2023-01-25T03:15:47.624Z,4.20
2023-01-25T03:20:50.593Z,4.50
2023-01-25T03:25:53.503Z,4.50
2023-01-25T03:30:56.137Z,3.80
2023-01-25T03:35:59.348Z,3.40
2023-01-25T03:41:04.211Z,3.80
2023-01-25T03:46:08.513Z,4.10
2023-01-25T03:51:11.175Z,4.30
2023-01-25T03:56:20.020Z,3.50
2023-01-25T04:01:39.656Z,3.60
2023-01-25T04:06:42.236Z,4.20
2023-01-25T04:11:44.878Z,4.60
2023-01-25T04:16:48.849Z,4.50
2023-01-25T04:22:23.252Z,4.10
2023-01-25T04:27:29.000Z,4.30
2023-01-25T04:32:39.314Z,4.20
2023-01-25T04:37:58.505Z,4.50
2023-01-25T04:43:06.895Z,3.60
2023-01-25T04:48:12.523Z,3.80
2023-01-25T04:53:23.207Z,3.10
2023-01-25T04:58:26.941Z,4.10
2023-01-25T05:03:30.860Z,4.20
2023-01-25T05:08:33.950Z,4.00
2023-01-25T05:13:38.872Z,4.80
2023-01-25T05:19:01.480Z,5.20
2023-01-25T05:24:13.284Z,5.00
2023-01-25T05:29:16.157Z,4.60
2023-01-25T05:34:41.418Z,3.80
2023-01-25T05:39:44.721Z,3.90
2023-01-25T05:44:48.028Z,4.20
2023-01-25T05:49:51.754Z,6.30
2023-01-25T05:55:02.844Z,6.00
2023-01-25T06:00:06.868Z,5.50
2023-01-25T06:05:15.661Z,5.40
2023-01-25T06:10:19.225Z,5.10
2023-01-25T06:15:25.524Z,4.60
2023-01-25T06:20:30.418Z,3.90
2023-01-25T06:25:41.772Z,3.20
2023-01-25T06:30:44.343Z,4.70
2023-01-25T06:35:47.051Z,5.30
2023-01-25T06:40:49.596Z,5.30
2023-01-25T06:45:52.096Z,6.50
2023-01-25T06:50:56.685Z,7.10
2023-01-25T06:56:06.574Z,6.90
2023-01-25T07:01:16.761Z,6.50
2023-01-25T07:06:19.761Z,7.00
2023-01-25T07:11:22.324Z,7.40
2023-01-25T07:16:24.802Z,7.20
2023-01-25T07:21:27.572Z,8.30
2023-01-25T07:26:30.974Z,8.70
2023-01-25T07:31:33.736Z,7.90
2023-01-25T07:36:36.898Z,6.90
2023-01-25T07:41:40.328Z,6.40
2023-01-25T07:46:47.734Z,6.50
2023-01-25T07:51:50.278Z,6.90
2023-01-25T07:56:52.799Z,8.10
2023-01-25T08:01:55.406Z,8.20
2023-01-25T08:06:57.959Z,7.20
2023-01-25T08:12:00.594Z,6.70
2023-01-25T08:17:03.042Z,7.50
2023-01-25T08:22:08.694Z,7.60
2023-01-25T08:27:11.411Z,6.70
2023-01-25T08:32:13.961Z,7.10
2023-01-25T08:37:16.845Z,7.00
2023-01-25T08:42:20.560Z,7.30
2023-01-25T08:47:23.437Z,7.60
2023-01-25T08:52:25.973Z,7.50
2023-01-25T08:57:28.664Z,7.80
2023-01-25T09:02:31.117Z,8.10
2023-01-25T09:07:37.872Z,7.60
2023-01-25T09:12:40.428Z,7.50
2023-01-25T09:17:43.049Z,6.90
2023-01-25T09:22:45.672Z,6.30
2023-01-25T09:27:51.467Z,5.90
2023-01-25T09:32:54.202Z,6.10
2023-01-25T09:37:57.077Z,6.60
2023-01-25T09:43:21.075Z,7.50
2023-01-25T09:48:31.169Z,7.60
2023-01-25T09:53:51.820Z,7.40
2023-01-25T09:58:59.582Z,7.70
2023-01-25T10:04:09.868Z,8.70
2023-01-25T10:09:22.345Z,8.80
2023-01-25T10:14:25.299Z,8.30
2023-01-25T10:19:55.404Z,7.10
2023-01-25T10:25:15.436Z,6.90
2023-01-25T10:30:21.889Z,6.40
2023-01-25T10:35:36.762Z,6.60
2023-01-25T10:41:20.157Z,6.30
2023-01-25T10:46:25.657Z,6.20
2023-01-25T10:51:33.790Z,5.90
2023-01-25T10:56:39.639Z,6.40
2023-01-25T11:01:42.992Z,6.10
2023-01-25T11:06:51.512Z,5.60
2023-01-25T11:12:18.924Z,6.40
2023-01-25T11:17:23.955Z,7.10
2023-01-25T11:22:28.752Z,7.90
2023-01-25T11:27:31.429Z,7.80
2023-01-25T11:32:34.349Z,7.60
2023-01-25T11:37:41.835Z,7.80
2023-01-25T11:43:09.845Z,7.40
2023-01-25T11:48:20.884Z,7.70
2023-01-25T11:54:14.415Z,8.10
2023-01-25T11:59:44.281Z,7.90
2023-01-25T12:05:12.627Z,8.00
2023-01-25T12:10:27.355Z,7.70
2023-01-25T12:15:55.294Z,8.20
2023-01-25T12:20:57.780Z,6.80
2023-01-25T12:26:18.708Z,4.90
2023-01-25T12:31:32.556Z,6.10
2023-01-25T12:36:43.956Z,6.30
2023-01-25T12:41:48.718Z,7.10
2023-01-25T12:47:00.935Z,7.10
2023-01-25T12:52:07.803Z,7.60
2023-01-25T12:57:26.044Z,7.40
2023-01-25T13:02:50.980Z,6.80
2023-01-25T13:08:00.846Z,6.10
2023-01-25T13:13:20.882Z,6.80
2023-01-25T13:18:29.641Z,8.60
2023-01-25T13:23:58.086Z,7.80
2023-01-25T13:29:01.174Z,8.00
2023-01-25T13:34:05.953Z,7.90
2023-01-25T13:39:23.556Z,7.60
2023-01-25T13:44:29.494Z,6.60
2023-01-25T13:49:40.977Z,7.00
2023-01-25T13:54:45.347Z,7.10
2023-01-25T13:59:49.526Z,7.20
2023-01-25T14:04:53.952Z,7.70
2023-01-25T14:09:57.139Z,6.90
2023-01-25T14:15:24.695Z,6.70
2023-01-25T14:20:27.293Z,6.60
2023-01-25T14:25:29.866Z,6.70
2023-01-25T14:30:34.795Z,7.20
2023-01-25T14:35:42.842Z,5.00
2023-01-25T14:40:59.192Z,4.40
2023-01-25T14:46:01.725Z,5.10
2023-01-25T14:51:17.170Z,5.60
2023-01-25T14:56:39.973Z,5.60
2023-01-25T15:01:42.457Z,5.10
2023-01-25T15:06:50.266Z,4.90
2023-01-25T15:12:00.416Z,5.70
2023-01-25T15:17:02.950Z,7.60
2023-01-25T15:22:08.607Z,7.80
2023-01-25T15:27:12.027Z,7.30
2023-01-25T15:32:21.640Z,6.60
2023-01-25T15:37:24.102Z,6.00
2023-01-25T15:42:29.003Z,5.60
2023-01-25T15:47:32.041Z,4.80
2023-01-25T15:52:34.569Z,4.80
2023-01-25T15:57:37.278Z,4.90
2023-01-25T16:02:39.933Z,5.30
2023-01-25T16:07:43.772Z,5.80
2023-01-25T16:12:46.474Z,6.50
2023-01-25T16:17:48.893Z,6.20
2023-01-25T16:22:51.454Z,6.20
2023-01-25T16:27:54.028Z,5.80
2023-01-25T16:32:56.653Z,4.70
2023-01-25T16:37:59.263Z,4.40
2023-01-25T16:43:02.090Z,4.10
2023-01-25T16:48:04.855Z,4.40
2023-01-25T16:53:07.390Z,6.70
2023-01-25T16:58:09.965Z,6.00
2023-01-25T17:03:12.477Z,5.80
2023-01-25T17:08:15.016Z,6.10
2023-01-25T17:13:17.632Z,6.10
2023-01-25T17:18:20.236Z,6.10
2023-01-25T17:23:22.812Z,6.10
2023-01-25T17:28:25.611Z,5.70
2023-01-25T17:33:29.002Z,6.40
2023-01-25T17:38:31.545Z,5.20
2023-01-25T17:43:34.759Z,5.40
2023-01-25T17:48:37.275Z,4.70
2023-01-25T17:53:39.803Z,4.20
2023-01-25T17:58:42.629Z,3.70
2023-01-25T18:03:47.327Z,3.70
2023-01-25T18:08:51.699Z,3.90
2023-01-25T18:13:57.141Z,4.30
2023-01-25T18:19:00.871Z,4.10
2023-01-25T18:24:27.414Z,4.00
2023-01-25T18:29:48.715Z,3.70
2023-01-25T18:34:51.861Z,3.60
2023-01-25T18:39:55.792Z,3.00
2023-01-25T18:44:58.679Z,3.60
2023-01-25T18:50:02.068Z,4.20
2023-01-25T18:55:04.876Z,3.50
2023-01-25T19:00:11.041Z,3.00
2023-01-25T19:05:14.507Z,2.70
2023-01-25T19:10:18.585Z,2.80
2023-01-25T19:15:21.577Z,2.90
2023-01-25T19:20:26.520Z,2.80
2023-01-25T19:25:30.765Z,5.30
2023-01-25T19:30:33.659Z,5.10
2023-01-25T19:35:36.662Z,4.10
2023-01-25T19:40:39.918Z,3.20
2023-01-25T19:45:43.091Z,3.20
2023-01-25T19:50:46.176Z,3.00
2023-01-25T19:55:49.122Z,2.80
2023-01-25T20:00:52.080Z,2.60
2023-01-25T20:05:59.707Z,4.70
2023-01-25T20:11:08.549Z,4.70
2023-01-25T20:16:12.807Z,3.70
2023-01-25T20:21:22.473Z,3.20
2023-01-25T20:26:32.643Z,3.50
2023-01-25T20:31:38.890Z,3.70
2023-01-25T20:36:42.805Z,3.30
2023-01-25T20:41:47.170Z,2.90
2023-01-25T20:46:52.273Z,2.70
2023-01-25T20:51:55.506Z,4.90
2023-01-25T20:56:58.613Z,4.00
2023-01-25T21:02:01.801Z,3.30
2023-01-25T21:07:04.707Z,2.90
2023-01-25T21:12:08.168Z,2.80
2023-01-25T21:17:11.556Z,2.60
2023-01-25T21:22:14.270Z,2.60
2023-01-25T21:27:17.251Z,2.50
2023-01-25T21:32:19.924Z,2.50
2023-01-25T21:37:22.623Z,2.50
2023-01-25T21:42:25.233Z,2.90
2023-01-25T21:47:31.390Z,2.60
2023-01-25T21:52:37.314Z,2.90
2023-01-25T21:57:47.249Z,2.90
2023-01-25T22:02:51.989Z,3.00
2023-01-25T22:12:57.527Z,1.90
2023-01-25T22:17:59.960Z,1.60
2023-01-25T22:28:12.201Z,2.00
2023-01-25T22:33:14.695Z,1.90
2023-01-25T22:43:19.991Z,2.30
2023-01-25T22:53:25.274Z,2.60
2023-01-25T23:08:35.691Z,2.70
2023-01-25T23:13:39.932Z,2.60
2023-01-25T23:18:51.676Z,2.70
2023-01-25T23:23:55.170Z,3.00
2023-01-25T23:28:58.125Z,2.90
2023-01-25T23:34:03.035Z,2.80
2023-01-25T23:39:05.866Z,2.90
2023-01-25T23:44:09.870Z,3.10
2023-01-25T23:54:43.675Z,3.00
2023-01-25T23:59:46.235Z,3.30
